Portada
METAR-TAF:

METAR-TAF

Aeropuertos :

Aeropuerto de Gibraltar

Gibraltar, Gibraltar

latitud: 36-09N, longitud: 005-21W, altitud: 5 m

Observación

El informe se hizo hace 1 hora y 2 minutos, a las 04:50 UTC
Viento 18 kt del oeste con ráfagas de 28 kt
Temperatura 12°C
Humedad 67%
Presión 1026 hPa
Visibilidad 10 km o más
sin nubes por debajo de 1500 m y sin presencia de cumulonimbus.

METAR: LXGB 120450Z 28018G28KT CAVOK 12/06 Q1026 RMK BLU

Hora: 06:52 (05:52 UTC)

Pronóstico

El informe se hizo hace 7 minutos, a las 05:45 UTC
Pronóstico válido del 12 a las 06 UTC al 12 a las 15 UTC
Viento 16 kt del oeste con ráfagas de 26 kt
Visibilidad 10 km o más
Escasas nubes a una altura de 4000 ft

TAF: LXGB 120545Z 1206/1215 27016G26KT 9999 FEW040

Observaciones y pronósticos meteorológicos de más de 4000 aeropuertos (mensajes METAR y TAF).

Los puntos amarillos y rojos representan las estaciones disponibles.

Ponga el ratón en el punto deseado para ver el nombre de la estación.

Haga clic para ver las observaciones y los pronósticos meteorológicos.

Para cambiar el mapa : haga clic en los botones verdes con una cruz de color negro para hacer un zoom, en el botón verde con un guión para alejar o en las flechas verdes para mapas adyacentes.


METAR-TAF: